createdAt,value
2018-07-10T00:00:59.938Z,80.29
2018-07-10T00:01:59.940Z,79.91
2018-07-10T00:02:59.940Z,80.00
2018-07-10T00:03:59.940Z,80.38
2018-07-10T00:04:59.938Z,79.81
2018-07-10T00:05:59.941Z,79.91
2018-07-10T00:06:59.941Z,79.24
2018-07-10T00:07:59.950Z,79.14
2018-07-10T00:08:59.943Z,79.05
2018-07-10T00:09:59.942Z,79.14
2018-07-10T00:10:59.943Z,78.86
2018-07-10T00:11:59.943Z,78.19
2018-07-10T00:12:59.942Z,78.19
2018-07-10T00:13:59.945Z,76.94
2018-07-10T00:14:59.946Z,76.56
2018-07-10T00:15:59.945Z,75.89
2018-07-10T00:16:59.945Z,76.94
2018-07-10T00:17:59.951Z,76.56
2018-07-10T00:18:59.948Z,76.18
2018-07-10T00:19:59.947Z,76.04
2018-07-10T00:20:59.948Z,76.65
2018-07-10T00:21:59.947Z,76.14
2018-07-10T00:22:59.947Z,75.98
2018-07-10T00:23:59.951Z,75.95
2018-07-10T00:24:59.948Z,75.70
2018-07-10T00:25:59.949Z,76.52
2018-07-10T00:26:59.951Z,76.37
2018-07-10T00:27:59.954Z,76.27
2018-07-10T00:28:59.950Z,76.27
2018-07-10T00:29:59.950Z,75.79
2018-07-10T00:30:59.951Z,75.70
2018-07-10T00:31:59.952Z,75.89
2018-07-10T00:32:59.952Z,75.66
2018-07-10T00:33:59.951Z,75.31
2018-07-10T00:34:59.952Z,75.02
2018-07-10T00:35:59.954Z,74.99
2018-07-10T00:36:59.954Z,74.93
2018-07-10T00:37:59.954Z,74.93
2018-07-10T00:38:59.955Z,74.55
2018-07-10T00:39:59.956Z,74.41
2018-07-10T00:40:59.955Z,74.70
2018-07-10T00:41:59.955Z,74.13
2018-07-10T00:42:59.956Z,74.22
2018-07-10T00:43:59.959Z,74.32
2018-07-10T00:44:59.956Z,74.07
2018-07-10T00:45:59.956Z,74.22
2018-07-10T00:46:59.956Z,74.32
2018-07-10T00:47:59.958Z,74.61
2018-07-10T00:48:59.959Z,74.13
2018-07-10T00:49:59.959Z,74.74
2018-07-10T00:50:59.959Z,74.41
2018-07-10T00:51:59.960Z,74.22
2018-07-10T00:52:59.959Z,74.45
2018-07-10T00:53:59.961Z,75.12
2018-07-10T00:54:59.966Z,75.41
2018-07-10T00:55:59.962Z,75.51
2018-07-10T00:56:59.960Z,74.90
2018-07-10T00:57:59.961Z,75.47
2018-07-10T00:58:59.963Z,75.51
2018-07-10T00:59:59.963Z,75.79
2018-07-10T01:00:59.963Z,76.04
2018-07-10T01:01:59.961Z,75.76
2018-07-10T01:02:59.962Z,75.66
2018-07-10T01:03:59.963Z,76.04
2018-07-10T01:04:59.962Z,75.76
2018-07-10T01:05:59.963Z,75.76
2018-07-10T01:06:59.965Z,75.09
2018-07-10T01:07:59.964Z,75.95
2018-07-10T01:08:59.966Z,75.95
2018-07-10T01:09:59.965Z,76.04
2018-07-10T01:10:59.967Z,75.95
2018-07-10T01:11:59.965Z,76.33
2018-07-10T01:12:59.965Z,76.23
2018-07-10T01:13:59.967Z,77.13
2018-07-10T01:14:59.968Z,77.28
2018-07-10T01:15:59.969Z,77.86
2018-07-10T01:16:59.966Z,77.19
2018-07-10T01:17:59.966Z,77.57
2018-07-10T01:19:00.038Z,77.70
2018-07-10T01:19:59.967Z,77.33
2018-07-10T01:20:59.969Z,77.51
2018-07-10T01:21:59.968Z,78.19
2018-07-10T01:22:59.968Z,77.23
2018-07-10T01:23:59.968Z,77.09
2018-07-10T01:24:59.967Z,77.00
2018-07-10T01:25:59.969Z,77.23
2018-07-10T01:26:59.970Z,77.09
2018-07-10T01:27:59.971Z,77.00
2018-07-10T01:28:59.971Z,77.38
2018-07-10T01:29:59.969Z,77.28
2018-07-10T01:30:59.970Z,78.05
2018-07-10T01:31:59.970Z,77.57
2018-07-10T01:32:59.972Z,77.38
2018-07-10T01:33:59.971Z,77.76
2018-07-10T01:34:59.971Z,77.76
2018-07-10T01:35:59.972Z,77.76
2018-07-10T01:36:59.972Z,77.67
2018-07-10T01:37:59.971Z,77.57
2018-07-10T01:38:59.973Z,78.24
2018-07-10T01:39:59.973Z,78.53
2018-07-10T01:40:59.972Z,78.14
2018-07-10T01:41:59.973Z,78.24
2018-07-10T01:42:59.972Z,77.76
2018-07-10T01:43:59.974Z,78.24
2018-07-10T01:44:59.972Z,78.14
2018-07-10T01:45:59.975Z,78.05
2018-07-10T01:46:59.974Z,78.63
2018-07-10T01:47:59.975Z,78.53
2018-07-10T01:48:59.974Z,78.72
2018-07-10T01:49:59.973Z,78.43
2018-07-10T01:51:00.026Z,78.05
2018-07-10T01:51:59.980Z,78.24
2018-07-10T01:52:59.976Z,78.24
2018-07-10T01:53:59.975Z,78.05
2018-07-10T01:54:59.976Z,78.43
2018-07-10T01:55:59.977Z,78.53
2018-07-10T01:56:59.975Z,78.24
2018-07-10T01:57:59.977Z,78.53
2018-07-10T01:58:59.976Z,78.43
2018-07-10T01:59:59.978Z,78.34
2018-07-10T02:00:59.976Z,78.24
2018-07-10T02:01:59.976Z,78.43
2018-07-10T02:02:59.978Z,78.24
2018-07-10T02:03:59.978Z,78.24
2018-07-10T02:04:59.977Z,77.86
2018-07-10T02:05:59.980Z,77.00
2018-07-10T02:06:59.978Z,77.00
2018-07-10T02:07:59.978Z,77.06
2018-07-10T02:08:59.978Z,76.96
2018-07-10T02:09:59.977Z,76.96
2018-07-10T02:10:59.979Z,77.15
2018-07-10T02:11:59.979Z,77.15
2018-07-10T02:12:59.978Z,77.25
2018-07-10T02:14:00.034Z,76.48
2018-07-10T02:14:59.982Z,76.77
2018-07-10T02:15:59.978Z,76.39
2018-07-10T02:16:59.979Z,76.96
2018-07-10T02:17:59.977Z,76.39
2018-07-10T02:18:59.979Z,76.10
2018-07-10T02:19:59.978Z,76.00
2018-07-10T02:20:59.979Z,76.00
2018-07-10T02:21:59.977Z,76.10
2018-07-10T02:22:59.978Z,76.39
2018-07-10T02:23:59.978Z,76.10
2018-07-10T02:24:59.978Z,76.29
2018-07-10T02:25:59.976Z,76.20
2018-07-10T02:26:59.976Z,76.48
2018-07-10T02:27:59.977Z,75.91
2018-07-10T02:28:59.976Z,76.29
2018-07-10T02:29:59.976Z,76.10
2018-07-10T02:30:59.975Z,76.67
2018-07-10T02:31:59.976Z,76.20
2018-07-10T02:32:59.975Z,76.67
2018-07-10T02:33:59.976Z,76.77
2018-07-10T02:34:59.975Z,76.48
2018-07-10T02:35:59.976Z,76.57
2018-07-10T02:36:59.974Z,76.10
2018-07-10T02:37:59.975Z,76.20
2018-07-10T02:38:59.974Z,75.62
2018-07-10T02:39:59.974Z,75.43
2018-07-10T02:40:59.974Z,75.87
2018-07-10T02:41:59.973Z,75.52
2018-07-10T02:42:59.972Z,75.49
2018-07-10T02:43:59.976Z,75.34
2018-07-10T02:44:59.976Z,75.78
2018-07-10T02:45:59.972Z,75.68
2018-07-10T02:46:59.973Z,75.49
2018-07-10T02:47:59.973Z,75.20
2018-07-10T02:48:59.971Z,74.73
2018-07-10T02:49:59.971Z,74.24
2018-07-10T02:50:59.970Z,74.63
2018-07-10T02:51:59.971Z,74.73
2018-07-10T02:52:59.969Z,74.15
2018-07-10T02:53:59.969Z,74.63
2018-07-10T02:54:59.969Z,74.44
2018-07-10T02:55:59.969Z,74.34
2018-07-10T02:56:59.968Z,74.53
2018-07-10T02:57:59.969Z,74.44
2018-07-10T02:58:59.973Z,74.34
2018-07-10T02:59:59.967Z,73.96
2018-07-10T03:00:59.976Z,74.15
2018-07-10T03:01:59.964Z,73.86
2018-07-10T03:02:59.966Z,73.77
2018-07-10T03:03:59.965Z,74.05
2018-07-10T03:04:59.963Z,73.77
2018-07-10T03:05:59.965Z,73.86
2018-07-10T03:06:59.964Z,73.67
2018-07-10T03:07:59.966Z,73.86
2018-07-10T03:08:59.964Z,73.86
2018-07-10T03:09:59.962Z,73.77
2018-07-10T03:10:59.965Z,73.86
2018-07-10T03:11:59.962Z,74.34
2018-07-10T03:12:59.961Z,74.48
2018-07-10T03:13:59.962Z,74.66
2018-07-10T03:14:59.960Z,74.48
2018-07-10T03:15:59.959Z,73.90
2018-07-10T03:16:59.959Z,73.80
2018-07-10T03:17:59.958Z,73.67
2018-07-10T03:18:59.959Z,74.76
2018-07-10T03:19:59.958Z,74.19
2018-07-10T03:20:59.959Z,74.19
2018-07-10T03:21:59.957Z,74.28
2018-07-10T03:22:59.959Z,74.38
2018-07-10T03:23:59.956Z,74.63
2018-07-10T03:24:59.956Z,74.57
2018-07-10T03:25:59.954Z,74.09
2018-07-10T03:26:59.960Z,74.38
2018-07-10T03:27:59.955Z,74.38
2018-07-10T03:28:59.954Z,74.44
2018-07-10T03:29:59.953Z,74.38
2018-07-10T03:30:59.960Z,74.24
2018-07-10T03:31:59.953Z,74.76
2018-07-10T03:32:59.952Z,73.96
2018-07-10T03:33:59.951Z,74.34
2018-07-10T03:34:59.951Z,74.34
2018-07-10T03:35:59.977Z,74.66
2018-07-10T03:36:59.951Z,74.63
2018-07-10T03:37:59.949Z,75.05
2018-07-10T03:38:59.949Z,74.66
2018-07-10T03:39:59.950Z,74.66
2018-07-10T03:40:59.947Z,74.95
2018-07-10T03:41:59.947Z,74.85
2018-07-10T03:42:59.947Z,74.76
2018-07-10T03:43:59.946Z,75.24
2018-07-10T03:44:59.949Z,75.05
2018-07-10T03:45:59.945Z,75.34
2018-07-10T03:46:59.946Z,74.48
2018-07-10T03:47:59.946Z,74.85
2018-07-10T03:48:59.943Z,75.05
2018-07-10T03:49:59.943Z,74.66
2018-07-10T03:50:59.943Z,74.53
2018-07-10T03:51:59.943Z,74.85
2018-07-10T03:52:59.942Z,74.85
2018-07-10T03:53:59.941Z,74.85
2018-07-10T03:54:59.940Z,74.57
2018-07-10T03:55:59.941Z,74.85
2018-07-10T03:56:59.939Z,74.28
2018-07-10T03:57:59.940Z,74.48
2018-07-10T03:58:59.940Z,74.48
2018-07-10T03:59:59.941Z,74.85
2018-07-10T04:00:59.938Z,74.85
2018-07-10T04:01:59.937Z,74.48
2018-07-10T04:02:59.938Z,75.24
2018-07-10T04:03:59.938Z,74.95
2018-07-10T04:04:59.936Z,74.57
2018-07-10T04:05:59.936Z,74.66
2018-07-10T04:06:59.936Z,74.85
2018-07-10T04:07:59.935Z,74.57
2018-07-10T04:08:59.941Z,75.24
2018-07-10T04:09:59.932Z,75.05
2018-07-10T04:10:59.933Z,74.76
2018-07-10T04:11:59.933Z,75.05
2018-07-10T04:12:59.932Z,75.14
2018-07-10T04:13:59.933Z,75.24
2018-07-10T04:14:59.932Z,75.05
2018-07-10T04:15:59.932Z,75.24
2018-07-10T04:16:59.931Z,74.66
2018-07-10T04:17:59.932Z,74.95
2018-07-10T04:18:59.929Z,75.52
2018-07-10T04:19:59.930Z,75.14
2018-07-10T04:20:59.928Z,75.43
2018-07-10T04:21:59.928Z,74.95
2018-07-10T04:22:59.929Z,74.57
2018-07-10T04:23:59.929Z,74.85
2018-07-10T04:24:59.927Z,75.14
2018-07-10T04:25:59.928Z,75.34
2018-07-10T04:26:59.925Z,75.71
2018-07-10T04:27:59.926Z,75.34
2018-07-10T04:28:59.979Z,75.91
2018-07-10T04:29:59.924Z,75.37
2018-07-10T04:30:59.926Z,75.43
2018-07-10T04:31:59.925Z,75.81
2018-07-10T04:32:59.924Z,75.81
2018-07-10T04:33:59.922Z,75.52
2018-07-10T04:34:59.924Z,75.24
2018-07-10T04:35:59.925Z,75.27
2018-07-10T04:36:59.922Z,75.71
2018-07-10T04:37:59.921Z,76.00
2018-07-10T04:38:59.922Z,75.95
2018-07-10T04:39:59.921Z,76.04
2018-07-10T04:40:59.921Z,75.85
2018-07-10T04:41:59.920Z,76.29
2018-07-10T04:42:59.921Z,76.10
2018-07-10T04:43:59.920Z,76.39
2018-07-10T04:44:59.919Z,75.95
2018-07-10T04:45:59.922Z,76.04
2018-07-10T04:46:59.920Z,76.04
2018-07-10T04:47:59.918Z,75.85
2018-07-10T04:48:59.934Z,76.04
2018-07-10T04:49:59.918Z,76.04
2018-07-10T04:50:59.917Z,76.33
2018-07-10T04:51:59.919Z,76.33
2018-07-10T04:52:59.918Z,75.95
2018-07-10T04:53:59.917Z,76.04
2018-07-10T04:54:59.918Z,75.85
2018-07-10T04:55:59.917Z,76.52
2018-07-10T04:56:59.918Z,75.95
2018-07-10T04:57:59.917Z,76.23
2018-07-10T04:58:59.917Z,75.95
2018-07-10T04:59:59.919Z,76.33
2018-07-10T05:00:59.916Z,76.52
2018-07-10T05:01:59.917Z,76.42
2018-07-10T05:02:59.920Z,77.09
2018-07-10T05:03:59.919Z,77.09
2018-07-10T05:04:59.918Z,76.71
2018-07-10T05:05:59.933Z,76.52
2018-07-10T05:06:59.917Z,76.23
2018-07-10T05:07:59.918Z,76.81
2018-07-10T05:08:59.915Z,76.04
2018-07-10T05:09:59.917Z,75.85
2018-07-10T05:10:59.916Z,75.47
2018-07-10T05:11:59.953Z,75.27
2018-07-10T05:12:59.916Z,75.47
2018-07-10T05:13:59.918Z,76.14
2018-07-10T05:14:59.918Z,75.95
2018-07-10T05:15:59.917Z,76.04
2018-07-10T05:16:59.917Z,76.14
2018-07-10T05:17:59.917Z,76.14
2018-07-10T05:18:59.915Z,76.14
2018-07-10T05:19:59.917Z,76.23
2018-07-10T05:20:59.917Z,76.23
2018-07-10T05:21:59.918Z,76.71
2018-07-10T05:22:59.952Z,75.95
2018-07-10T05:23:59.917Z,76.52
2018-07-10T05:24:59.917Z,75.85
2018-07-10T05:25:59.917Z,75.47
2018-07-10T05:26:59.916Z,76.14
2018-07-10T05:27:59.917Z,76.04
2018-07-10T05:28:59.995Z,76.42
2018-07-10T05:29:59.917Z,75.95
2018-07-10T05:30:59.920Z,75.66
2018-07-10T05:31:59.917Z,75.37
2018-07-10T05:32:59.918Z,75.66
2018-07-10T05:33:59.916Z,75.66
2018-07-10T05:34:59.918Z,76.14
2018-07-10T05:35:59.918Z,76.04
2018-07-10T05:36:59.918Z,75.98
2018-07-10T05:37:59.918Z,76.33
2018-07-10T05:38:59.917Z,76.23
2018-07-10T05:39:59.918Z,76.56
2018-07-10T05:40:59.918Z,75.89
2018-07-10T05:41:59.918Z,75.98
2018-07-10T05:42:59.919Z,76.56
2018-07-10T05:43:59.919Z,75.85
2018-07-10T05:44:59.919Z,76.08
2018-07-10T05:45:59.919Z,75.98
2018-07-10T05:46:59.919Z,76.18
2018-07-10T05:47:59.919Z,75.98
2018-07-10T05:48:59.926Z,76.65
2018-07-10T05:49:59.921Z,77.04
2018-07-10T05:50:59.919Z,77.36
2018-07-10T05:51:59.931Z,77.84
2018-07-10T05:52:59.920Z,77.61
2018-07-10T05:53:59.921Z,77.94
2018-07-10T05:54:59.921Z,78.03
2018-07-10T05:55:59.922Z,76.94
2018-07-10T05:56:59.922Z,77.13
2018-07-10T05:57:59.921Z,76.94
2018-07-10T05:58:59.923Z,76.94
2018-07-10T05:59:59.923Z,77.13
2018-07-10T06:00:59.923Z,77.13
2018-07-10T06:01:59.927Z,76.94
2018-07-10T06:02:59.927Z,76.94
2018-07-10T06:03:59.925Z,77.04
2018-07-10T06:04:59.926Z,77.51
2018-07-10T06:05:59.926Z,77.13
2018-07-10T06:06:59.928Z,77.13
2018-07-10T06:07:59.927Z,77.23
2018-07-10T06:08:59.925Z,76.94
2018-07-10T06:09:59.933Z,77.04
2018-07-10T06:10:59.927Z,77.04
2018-07-10T06:11:59.932Z,76.94
2018-07-10T06:12:59.929Z,76.94
2018-07-10T06:13:59.981Z,76.75
2018-07-10T06:14:59.930Z,76.65
2018-07-10T06:15:59.930Z,76.65
2018-07-10T06:16:59.930Z,76.27
2018-07-10T06:17:59.930Z,75.98
2018-07-10T06:18:59.931Z,75.98
2018-07-10T06:19:59.930Z,75.98
2018-07-10T06:20:59.931Z,75.51
2018-07-10T06:21:59.935Z,75.12
2018-07-10T06:22:59.931Z,74.45
2018-07-10T06:23:59.933Z,73.55
2018-07-10T06:24:59.931Z,73.46
2018-07-10T06:25:59.931Z,72.88
2018-07-10T06:26:59.941Z,72.41
2018-07-10T06:27:59.933Z,71.36
2018-07-10T06:28:59.933Z,72.44
2018-07-10T06:29:59.933Z,72.44
2018-07-10T06:30:59.933Z,72.92
2018-07-10T06:31:59.935Z,71.68
2018-07-10T06:32:59.933Z,72.16
2018-07-10T06:33:59.934Z,71.39
2018-07-10T06:34:59.939Z,71.01
2018-07-10T06:35:59.935Z,68.77
2018-07-10T06:36:59.934Z,69.06
2018-07-10T06:37:59.934Z,67.34
2018-07-10T06:38:59.935Z,65.61
2018-07-10T06:39:59.935Z,65.52
2018-07-10T06:40:59.936Z,65.33
2018-07-10T06:41:59.934Z,65.52
2018-07-10T06:42:59.938Z,65.61
2018-07-10T06:43:59.935Z,65.23
2018-07-10T06:44:59.934Z,65.81
2018-07-10T06:45:59.938Z,65.14
2018-07-10T06:46:59.936Z,65.71
2018-07-10T06:47:59.937Z,65.90
2018-07-10T06:48:59.937Z,66.00
2018-07-10T06:49:59.937Z,66.19
2018-07-10T06:50:59.939Z,65.94
2018-07-10T06:51:59.938Z,66.13
2018-07-10T06:53:00.247Z,65.94
2018-07-10T06:53:59.938Z,65.84
2018-07-10T06:54:59.938Z,65.74
2018-07-10T06:55:59.939Z,66.16
2018-07-10T06:56:59.938Z,65.97
2018-07-10T06:57:59.938Z,65.45
2018-07-10T06:58:59.941Z,64.79
2018-07-10T06:59:59.940Z,63.83
2018-07-10T07:00:59.947Z,64.22
2018-07-10T07:01:59.941Z,64.59
2018-07-10T07:02:59.942Z,62.77
2018-07-10T07:03:59.942Z,64.09
2018-07-10T07:04:59.942Z,62.94
2018-07-10T07:05:59.942Z,63.80
2018-07-10T07:06:59.943Z,63.13
2018-07-10T07:07:59.993Z,62.74
2018-07-10T07:08:59.944Z,62.94
2018-07-10T07:09:59.946Z,62.84
2018-07-10T07:10:59.949Z,62.46
2018-07-10T07:11:59.947Z,63.23
2018-07-10T07:12:59.947Z,62.84
2018-07-10T07:13:59.948Z,63.23
2018-07-10T07:14:59.949Z,62.43
2018-07-10T07:15:59.952Z,62.08
2018-07-10T07:16:59.952Z,63.19
2018-07-10T07:17:59.950Z,63.29
2018-07-10T07:18:59.950Z,62.62
2018-07-10T07:19:59.951Z,62.37
2018-07-10T07:20:59.950Z,61.69
2018-07-10T07:21:59.953Z,62.65
2018-07-10T07:22:59.951Z,61.60
2018-07-10T07:23:59.952Z,62.71
2018-07-10T07:24:59.952Z,61.98
2018-07-10T07:25:59.952Z,61.66
2018-07-10T07:26:59.953Z,61.09
2018-07-10T07:27:59.953Z,61.28
2018-07-10T07:28:59.953Z,60.52
2018-07-10T07:29:59.954Z,61.09
2018-07-10T07:30:59.953Z,60.90
2018-07-10T07:31:59.956Z,61.09
2018-07-10T07:32:59.954Z,60.99
2018-07-10T07:33:59.954Z,60.52
2018-07-10T07:34:59.983Z,60.52
2018-07-10T07:35:59.955Z,60.42
2018-07-10T07:36:59.954Z,60.83
2018-07-10T07:37:59.955Z,60.64
2018-07-10T07:38:59.955Z,62.46
2018-07-10T07:39:59.955Z,61.88
2018-07-10T07:40:59.953Z,61.79
2018-07-10T07:41:59.957Z,61.76
2018-07-10T07:42:59.955Z,61.69
2018-07-10T07:44:00.030Z,62.14
2018-07-10T07:44:59.956Z,62.71
2018-07-10T07:45:59.956Z,61.66
2018-07-10T07:46:59.956Z,61.57
2018-07-10T07:47:59.957Z,61.38
2018-07-10T07:48:59.959Z,62.43
2018-07-10T07:49:59.957Z,61.95
2018-07-10T07:50:59.956Z,61.85
2018-07-10T07:51:59.958Z,61.57
2018-07-10T07:52:59.956Z,63.00
2018-07-10T07:53:59.958Z,63.29
2018-07-10T07:54:59.957Z,62.24
2018-07-10T07:55:59.957Z,63.86
2018-07-10T07:56:59.957Z,62.90
2018-07-10T07:57:59.956Z,62.04
2018-07-10T07:58:59.960Z,63.48
2018-07-10T07:59:59.958Z,63.39
2018-07-10T08:00:59.959Z,62.71
2018-07-10T08:01:59.958Z,63.19
2018-07-10T08:02:59.957Z,62.43
2018-07-10T08:03:59.965Z,63.67
2018-07-10T08:04:59.956Z,63.29
2018-07-10T08:05:59.957Z,63.10
2018-07-10T08:06:59.957Z,63.00
2018-07-10T08:07:59.958Z,63.10
2018-07-10T08:08:59.957Z,63.10
2018-07-10T08:09:59.957Z,64.25
2018-07-10T08:10:59.957Z,64.25
2018-07-10T08:11:59.957Z,64.34
2018-07-10T08:12:59.957Z,62.14
2018-07-10T08:13:59.958Z,62.55
2018-07-10T08:14:59.957Z,64.34
2018-07-10T08:15:59.958Z,64.53
2018-07-10T08:16:59.961Z,65.30
2018-07-10T08:17:59.957Z,64.15
2018-07-10T08:18:59.958Z,65.14
2018-07-10T08:19:59.958Z,64.56
2018-07-10T08:20:59.956Z,67.82
2018-07-10T08:21:59.957Z,68.39
2018-07-10T08:22:59.958Z,69.64
2018-07-10T08:23:59.958Z,70.87
2018-07-10T08:24:59.958Z,69.35
2018-07-10T08:25:59.957Z,69.25
2018-07-10T08:26:59.959Z,70.21
2018-07-10T08:27:59.959Z,70.11
2018-07-10T08:28:59.960Z,71.73
2018-07-10T08:29:59.960Z,74.99
2018-07-10T08:30:59.961Z,71.68
2018-07-10T08:31:59.961Z,70.62
2018-07-10T08:32:59.960Z,71.39
2018-07-10T08:34:00.063Z,73.97
2018-07-10T08:34:59.962Z,73.69
2018-07-10T08:35:59.962Z,74.36
2018-07-10T08:36:59.962Z,75.02
2018-07-10T08:37:59.963Z,74.74
2018-07-10T08:38:59.964Z,72.41
2018-07-10T08:39:59.967Z,73.84
2018-07-10T08:40:59.966Z,73.11
2018-07-10T08:41:59.965Z,70.34
2018-07-10T08:42:59.968Z,73.40
2018-07-10T08:43:59.967Z,73.88
2018-07-10T08:44:59.969Z,74.93
2018-07-10T08:45:59.968Z,75.70
2018-07-10T08:46:59.969Z,77.61
2018-07-10T08:47:59.972Z,75.02
2018-07-10T08:48:59.970Z,77.80
2018-07-10T08:49:59.971Z,75.83
2018-07-10T08:50:59.975Z,78.19
2018-07-10T08:51:59.973Z,78.66
2018-07-10T08:52:59.973Z,77.13
2018-07-10T08:53:59.974Z,79.05
2018-07-10T08:54:59.975Z,77.51
2018-07-10T08:55:59.975Z,78.53
2018-07-10T08:56:59.977Z,77.57
2018-07-10T08:57:59.978Z,78.24
2018-07-10T08:58:59.979Z,76.27
2018-07-10T08:59:59.980Z,75.70
2018-07-10T09:00:59.979Z,78.57
2018-07-10T09:01:59.982Z,78.57
2018-07-10T09:02:59.981Z,78.72
2018-07-10T09:03:59.984Z,76.62
2018-07-10T09:04:59.983Z,75.12
2018-07-10T09:05:59.985Z,76.65
2018-07-10T09:06:59.985Z,76.08
2018-07-10T09:08:00.037Z,77.33
2018-07-10T09:08:59.986Z,77.09
2018-07-10T09:09:59.988Z,76.81
2018-07-10T09:10:59.988Z,76.52
2018-07-10T09:11:59.990Z,77.09
2018-07-10T09:12:59.989Z,75.37
2018-07-10T09:14:00.080Z,76.14
2018-07-10T09:14:59.995Z,77.38
2018-07-10T09:15:59.992Z,74.32
2018-07-10T09:16:59.991Z,76.37
2018-07-10T09:17:59.993Z,76.46
2018-07-10T09:18:59.992Z,76.14
2018-07-10T09:19:59.995Z,73.55
2018-07-10T09:20:59.994Z,73.21
2018-07-10T09:21:59.995Z,72.63
2018-07-10T09:22:59.996Z,72.25
2018-07-10T09:24:00.000Z,73.50
2018-07-10T09:24:59.997Z,75.85
2018-07-10T09:25:59.998Z,74.04
2018-07-10T09:26:59.999Z,73.17
2018-07-10T09:28:00.001Z,73.84
2018-07-10T09:28:59.999Z,75.37
2018-07-10T09:30:00.001Z,74.70
2018-07-10T09:31:00.000Z,74.16
2018-07-10T09:32:00.003Z,74.45
2018-07-10T09:33:00.001Z,75.22
2018-07-10T09:34:00.015Z,75.70
2018-07-10T09:35:00.004Z,78.51
2018-07-10T09:36:00.020Z,80.04
2018-07-10T09:37:00.011Z,80.58
2018-07-10T09:38:00.013Z,79.81
2018-07-10T09:39:00.009Z,79.24
2018-07-10T09:40:00.077Z,77.99
2018-07-10T09:41:00.008Z,80.10
2018-07-10T09:42:00.010Z,81.44
2018-07-10T09:43:00.011Z,78.66
2018-07-10T09:44:00.082Z,78.47
2018-07-10T09:45:00.053Z,79.14
2018-07-10T09:46:00.031Z,79.81
2018-07-10T09:47:00.052Z,79.14
2018-07-10T09:48:00.028Z,79.05
2018-07-10T09:49:00.017Z,76.94
2018-07-10T09:50:00.020Z,79.24
2018-07-10T09:51:00.020Z,81.63
2018-07-10T09:52:00.027Z,79.62
2018-07-10T09:53:00.027Z,79.81
2018-07-10T09:54:00.019Z,81.54
2018-07-10T09:55:00.155Z,81.82
2018-07-10T09:56:00.027Z,80.19
2018-07-10T09:57:00.022Z,80.00
2018-07-10T09:58:00.027Z,79.24
2018-07-10T09:59:00.024Z,78.47
2018-07-10T10:00:00.039Z,78.86
2018-07-10T10:01:00.032Z,80.96
2018-07-10T10:02:00.111Z,79.29
2018-07-10T10:03:00.028Z,79.00
2018-07-10T10:04:00.027Z,77.80
2018-07-10T10:05:00.052Z,77.48
2018-07-10T10:06:00.029Z,77.61
2018-07-10T10:07:00.030Z,76.56
2018-07-10T10:08:00.031Z,77.70
2018-07-10T10:09:00.032Z,78.76
2018-07-10T10:10:00.033Z,77.04
2018-07-10T10:11:00.032Z,76.94
2018-07-10T10:12:00.034Z,79.33
2018-07-10T10:13:00.033Z,82.68
2018-07-10T10:14:00.033Z,81.92
2018-07-10T10:15:00.040Z,81.25
2018-07-10T10:16:00.038Z,81.15
2018-07-10T10:17:00.035Z,81.15
2018-07-10T10:18:00.036Z,79.62
2018-07-10T10:19:00.036Z,81.25
2018-07-10T10:20:00.049Z,81.96
2018-07-10T10:21:00.042Z,81.96
2018-07-10T10:22:00.040Z,82.06
2018-07-10T10:23:00.039Z,81.73
2018-07-10T10:24:00.040Z,81.20
2018-07-10T10:25:00.043Z,80.96
2018-07-10T10:26:00.040Z,81.82
2018-07-10T10:27:00.042Z,81.73
2018-07-10T10:28:00.043Z,80.52
2018-07-10T10:29:00.048Z,80.24
2018-07-10T10:30:00.081Z,81.44
2018-07-10T10:31:00.046Z,80.48
2018-07-10T10:32:00.046Z,81.44
2018-07-10T10:33:00.048Z,80.58
2018-07-10T10:34:00.047Z,80.87
2018-07-10T10:35:00.051Z,82.24
2018-07-10T10:36:00.049Z,83.20
2018-07-10T10:37:00.051Z,84.64
2018-07-10T10:38:00.050Z,83.01
2018-07-10T10:39:00.050Z,83.20
2018-07-10T10:40:00.054Z,84.30
2018-07-10T10:41:00.052Z,85.98
2018-07-10T10:42:00.055Z,86.46
2018-07-10T10:43:00.054Z,84.26
2018-07-10T10:44:00.058Z,87.32
2018-07-10T10:45:00.068Z,86.84
2018-07-10T10:46:00.056Z,83.68
2018-07-10T10:47:00.061Z,82.92
2018-07-10T10:48:00.057Z,83.59
2018-07-10T10:49:00.059Z,83.11
2018-07-10T10:50:00.063Z,83.01
2018-07-10T10:51:00.062Z,85.12
2018-07-10T10:52:00.072Z,83.78
2018-07-10T10:53:00.063Z,83.78
2018-07-10T10:54:00.064Z,86.27
2018-07-10T10:55:00.072Z,85.02
2018-07-10T10:56:00.067Z,83.78
2018-07-10T10:57:00.066Z,84.35
2018-07-10T10:58:00.069Z,83.20
2018-07-10T10:59:00.069Z,85.21
2018-07-10T11:00:00.095Z,84.30
2018-07-10T11:01:00.074Z,85.31
2018-07-10T11:02:00.072Z,85.21
2018-07-10T11:03:00.080Z,85.45
2018-07-10T11:04:00.074Z,84.92
2018-07-10T11:05:00.075Z,85.60
2018-07-10T11:06:00.085Z,85.74
2018-07-10T11:07:00.077Z,87.55
2018-07-10T11:08:00.078Z,87.46
2018-07-10T11:09:00.079Z,87.55
2018-07-10T11:10:00.080Z,86.21
2018-07-10T11:11:00.082Z,86.31
2018-07-10T11:12:00.084Z,88.75
2018-07-10T11:13:00.112Z,89.90
2018-07-10T11:14:00.085Z,91.43
2018-07-10T11:15:00.090Z,92.24
2018-07-10T11:16:00.089Z,95.12
2018-07-10T11:17:00.089Z,94.17
2018-07-10T11:18:00.090Z,95.75
2018-07-10T11:19:00.092Z,93.78
2018-07-10T11:20:00.095Z,96.37
2018-07-10T11:21:00.096Z,94.84
2018-07-10T11:22:00.098Z,95.03
2018-07-10T11:23:00.099Z,96.18
2018-07-10T11:24:00.100Z,96.51
2018-07-10T11:25:00.101Z,96.89
2018-07-10T11:26:00.103Z,97.95
2018-07-10T11:27:00.105Z,98.38
2018-07-10T11:28:00.108Z,99.05
2018-07-10T11:29:00.108Z,98.14
2018-07-10T11:30:00.116Z,98.43
2018-07-10T11:31:00.113Z,98.43
2018-07-10T11:32:00.117Z,98.38
2018-07-10T11:33:00.120Z,98.10
2018-07-10T11:34:00.121Z,98.00
2018-07-10T11:35:00.124Z,98.48
2018-07-10T11:36:00.126Z,98.58
2018-07-10T11:37:00.129Z,98.38
2018-07-10T11:38:00.131Z,97.76
2018-07-10T11:39:00.149Z,98.24
2018-07-10T11:40:00.138Z,97.66
2018-07-10T11:41:00.141Z,97.71
2018-07-10T11:42:00.143Z,98.38
2018-07-10T11:43:00.146Z,97.76
2018-07-10T11:44:00.149Z,98.43
2018-07-10T11:45:00.152Z,97.57
2018-07-10T11:46:00.155Z,98.10
2018-07-10T11:47:00.159Z,97.33
2018-07-10T11:48:00.162Z,96.85
2018-07-10T11:49:00.172Z,97.47
2018-07-10T11:50:00.167Z,97.28
2018-07-10T11:51:00.172Z,97.66
2018-07-10T11:52:00.175Z,97.24
2018-07-10T11:53:00.177Z,97.71
2018-07-10T11:54:00.180Z,97.71
2018-07-10T11:55:00.184Z,98.14
2018-07-10T11:56:00.188Z,98.14
2018-07-10T11:57:00.191Z,97.47
2018-07-10T11:58:00.195Z,97.28
2018-07-10T11:59:00.198Z,97.28
2018-07-10T12:00:00.203Z,97.38
2018-07-10T12:01:00.204Z,97.28
2018-07-10T12:02:00.283Z,96.80
2018-07-10T12:03:00.212Z,96.80
2018-07-10T12:04:00.215Z,97.19
2018-07-10T12:05:00.265Z,97.28
2018-07-10T12:06:00.220Z,96.89
2018-07-10T12:07:00.226Z,97.09
2018-07-10T12:08:00.230Z,97.19
2018-07-10T12:09:00.232Z,96.89
2018-07-10T12:10:00.236Z,96.85
2018-07-10T12:11:00.244Z,95.98
2018-07-10T12:12:00.246Z,95.17
2018-07-10T12:13:00.247Z,95.07
2018-07-10T12:14:00.250Z,94.40
2018-07-10T12:15:00.254Z,93.82
2018-07-10T12:16:00.259Z,93.19
2018-07-10T12:17:00.264Z,92.96
2018-07-10T12:18:00.266Z,93.77
2018-07-10T12:19:00.272Z,92.85
2018-07-10T12:20:00.278Z,91.99
2018-07-10T12:21:00.278Z,91.46
2018-07-10T12:22:00.282Z,90.20
2018-07-10T12:23:00.288Z,91.07
2018-07-10T12:24:00.291Z,90.97
2018-07-10T12:25:00.294Z,90.78
2018-07-10T12:26:00.299Z,90.93
2018-07-10T12:27:00.303Z,91.17
2018-07-10T12:28:00.336Z,92.33
2018-07-10T12:29:00.312Z,92.81
2018-07-10T12:30:00.317Z,92.43
2018-07-10T12:31:00.322Z,92.33
2018-07-10T12:32:00.327Z,92.04
2018-07-10T12:33:00.335Z,92.28
2018-07-10T12:34:00.336Z,91.80
2018-07-10T12:35:00.439Z,90.93
2018-07-10T12:36:00.345Z,90.93
2018-07-10T12:37:00.349Z,91.13
2018-07-10T12:38:00.354Z,91.75
2018-07-10T12:39:00.359Z,92.86
2018-07-10T12:40:00.364Z,92.57
2018-07-10T12:41:00.368Z,92.96
2018-07-10T12:42:00.373Z,92.86
2018-07-10T12:43:00.380Z,93.24
2018-07-10T12:44:00.383Z,93.05
2018-07-10T12:45:00.387Z,93.29
2018-07-10T12:46:00.394Z,94.15
2018-07-10T12:47:00.396Z,94.25
2018-07-10T12:48:00.401Z,94.49
2018-07-10T12:49:00.405Z,95.07
2018-07-10T12:50:00.410Z,95.31
2018-07-10T12:51:00.419Z,95.70
2018-07-10T12:52:00.419Z,96.27
2018-07-10T12:53:00.422Z,95.79